CheckWX is a tool to help pilots better visualize weather data.  It is not intended as a substitute for an official pre-flight weather briefing.

09:37:08 UTC

KOZR TAF
Cairns AAF (Fort Rucker) Airport
Fort Rucker/Ozark, Alabama, USA
TAF KOZR 300800Z 3008/3114 VRB06KT 9999 SCT030 QNH3000INS TEMPO 3009/3013 BKN004 BKN015 BECMG 3015/3016 32006KT 9999 FEW030 SCT060 QNH3009INS BECMG 3018/3019 30006KT 8000 -SHRA BKN030 BKN060 QNH3006INS TEMPO 3019/3024 VRB15G25KT 6000 -TSRA OVC030CB BECMG 3102/3103 33006KT 9999 NSW BKN050 QNH3002INS TX29/3021Z TN20/3011Z

May-30@
08:00 UTC

May-30 @ 08:00 UTC

May-30@
15:00 UTC

May-30 @ 15:00 UTC

TAF KOZR 300800Z 3008/3114 VRB06KT 9999 SCT030 QNH3000INS

Expired

Wind
  • Variable at 6 KTS
Cloud Levels
  • Scattered at 3,000' AGL

May-30@
09:00 UTC

May-30 @ 09:00 UTC

May-30@
13:00 UTC

May-30 @ 13:00 UTC

TEMPO 3009/3013 BKN004 BKN015

Expired

Cloud Levels
  • Broken at 400' AGL
  • Broken at 1,500' AGL

May-30@
15:00 UTC

May-30 @ 15:00 UTC

May-30@
18:00 UTC

May-30 @ 18:00 UTC

BECMG 3015/3016 32006KT 9999 FEW030 SCT060 QNH3009INS

Expired

Wind
  • 320° at 6 KTS
Cloud Levels
  • Few at 3,000' AGL
  • Scattered at 6,000' AGL

May-30@
18:00 UTC

May-30 @ 18:00 UTC

May-31@
02:00 UTC

May-31 @ 02:00 UTC

BECMG 3018/3019 30006KT 8000 -SHRA BKN030 BKN060 QNH3006INS

Expired

Wind
  • 300° at 6 KTS
Conditions
Light Showers, Rain
Cloud Levels
  • Broken at 3,000' AGL
  • Broken at 6,000' AGL

May-30@
19:00 UTC

May-30 @ 19:00 UTC

May-31@
00:00 UTC

May-31 @ 00:00 UTC

TEMPO 3019/3024 VRB15G25KT 6000 -TSRA OVC030CB

Expired

Wind
  • Variable at 15 KTS
  • {Gusting to 25 KTS
Conditions
Light Thunderstorm, Rain
Cloud Levels
  • Overcast at 3,000' AGL

May-31@
02:00 UTC

May-31 @ 02:00 UTC

May-31@
14:00 UTC

May-31 @ 14:00 UTC

BECMG 3102/3103 33006KT 9999 NSW BKN050 QNH3002INS TX29/3021Z TN20/3011Z

Becoming

Becoming Conditions expected by Sun, May 31, 2020 @ 03:00 UTC

Wind
  • 330° at 6 KTS
Conditions
No significant weather
Cloud Levels
  • Broken at 5,000' AGL